createdAt,value
2024-02-02T00:01:03.937Z,21.35
2024-02-02T00:03:32.047Z,23.10
2024-02-02T00:06:00.125Z,20.70
2024-02-02T00:08:28.106Z,27.95
2024-02-02T00:10:57.204Z,29.75
2024-02-02T00:13:26.011Z,25.17
2024-02-02T00:15:55.496Z,28.50
2024-02-02T00:18:23.636Z,34.08
2024-02-02T00:20:53.878Z,22.52
2024-02-02T00:23:21.900Z,35.38
2024-02-02T00:25:49.788Z,21.70
2024-02-02T00:28:17.946Z,25.33
2024-02-02T00:30:45.860Z,32.30
2024-02-02T00:33:15.304Z,26.85
2024-02-02T00:35:43.294Z,24.48
2024-02-02T00:38:11.208Z,30.60
2024-02-02T00:40:39.164Z,24.02
2024-02-02T00:43:07.174Z,28.20
2024-02-02T00:45:35.128Z,29.92
2024-02-02T00:48:03.962Z,25.48
2024-02-02T00:50:34.337Z,31.65
2024-02-02T00:53:02.254Z,30.33
2024-02-02T00:55:30.163Z,25.92
2024-02-02T00:57:58.139Z,24.17
2024-02-02T01:00:26.145Z,27.90
2024-02-02T01:02:54.261Z,21.65
2024-02-02T01:05:22.143Z,22.38
2024-02-02T01:07:51.468Z,30.65
2024-02-02T01:10:19.707Z,24.05
2024-02-02T01:12:48.096Z,30.52
2024-02-02T01:15:17.693Z,19.30
2024-02-02T01:17:46.929Z,21.60
2024-02-02T01:20:15.781Z,33.45
2024-02-02T01:22:43.986Z,24.55
2024-02-02T01:25:15.505Z,28.23
2024-02-02T01:27:43.759Z,32.55
2024-02-02T01:30:13.331Z,27.50
2024-02-02T01:32:41.953Z,25.35
2024-02-02T01:35:10.027Z,25.15
2024-02-02T01:37:37.910Z,30.30
2024-02-02T01:40:07.064Z,22.08
2024-02-02T01:42:36.437Z,26.60
2024-02-02T01:45:04.849Z,28.20
2024-02-02T01:47:32.862Z,23.00
2024-02-02T01:50:00.883Z,28.42
2024-02-02T01:52:29.194Z,23.65
2024-02-02T01:54:57.730Z,23.88
2024-02-02T01:57:26.004Z,18.05
2024-02-02T01:59:55.589Z,21.50
2024-02-02T02:02:23.622Z,22.88
2024-02-02T02:04:51.614Z,31.08
2024-02-02T02:07:19.568Z,29.67
2024-02-02T02:09:47.784Z,23.65
2024-02-02T02:12:15.870Z,28.08
2024-02-02T02:14:44.140Z,25.90
2024-02-02T02:17:13.529Z,33.55
2024-02-02T02:19:42.196Z,34.78
2024-02-02T02:22:11.494Z,18.88
2024-02-02T02:24:39.551Z,22.98
2024-02-02T02:27:07.806Z,28.55
2024-02-02T02:29:35.884Z,23.85
2024-02-02T02:32:03.937Z,27.35
2024-02-02T02:34:32.639Z,20.00
2024-02-02T02:37:00.763Z,22.50
2024-02-02T02:39:31.252Z,28.15
2024-02-02T02:41:59.270Z,25.88
2024-02-02T02:44:27.886Z,28.55
2024-02-02T02:46:55.919Z,31.42
2024-02-02T02:49:24.080Z,29.75
2024-02-02T02:51:52.036Z,32.65
2024-02-02T02:54:20.032Z,28.02
2024-02-02T02:56:49.378Z,35.65
2024-02-02T02:59:17.814Z,27.05
2024-02-02T03:01:45.823Z,23.50
2024-02-02T03:04:14.015Z,22.65
2024-02-02T03:06:42.082Z,30.77
2024-02-02T03:09:12.979Z,28.08
2024-02-02T03:11:41.265Z,25.33
2024-02-02T03:14:10.755Z,27.92
2024-02-02T03:16:38.648Z,30.00
2024-02-02T03:19:06.910Z,20.45
2024-02-02T03:21:35.856Z,20.67
2024-02-02T03:24:04.051Z,30.70
2024-02-02T03:26:32.150Z,33.95
2024-02-02T03:29:00.071Z,25.73
2024-02-02T03:31:29.432Z,27.67
2024-02-02T03:33:58.813Z,25.17
2024-02-02T03:36:27.038Z,23.75
2024-02-02T03:38:55.167Z,28.85
2024-02-02T03:41:23.631Z,27.50
2024-02-02T03:43:52.915Z,31.75
2024-02-02T03:46:20.952Z,19.75
2024-02-02T03:48:51.871Z,29.70
2024-02-02T03:51:19.979Z,27.45
2024-02-02T03:53:47.957Z,24.60
2024-02-02T03:56:16.010Z,26.33
2024-02-02T03:58:43.951Z,19.92
2024-02-02T04:01:11.956Z,20.67
2024-02-02T04:03:40.060Z,24.83
2024-02-02T04:06:09.761Z,24.67
2024-02-02T04:08:37.748Z,24.02
2024-02-02T04:11:06.130Z,19.83
2024-02-02T04:13:34.066Z,24.20
2024-02-02T04:16:02.004Z,28.05
2024-02-02T04:18:30.093Z,25.23
2024-02-02T04:20:58.270Z,24.23
2024-02-02T04:23:27.848Z,14.68
2024-02-02T04:25:55.882Z,21.35
2024-02-02T04:28:23.951Z,29.25
2024-02-02T04:30:52.076Z,29.30
2024-02-02T04:33:20.242Z,22.45
2024-02-02T04:35:48.411Z,27.30
2024-02-02T04:38:18.542Z,22.58
2024-02-02T04:40:48.009Z,28.33
2024-02-02T04:43:16.227Z,26.30
2024-02-02T04:45:44.685Z,21.98
2024-02-02T04:48:12.778Z,29.27
2024-02-02T04:50:41.343Z,23.25
2024-02-02T04:53:09.901Z,25.67
2024-02-02T04:55:37.868Z,24.75
2024-02-02T04:58:07.353Z,20.45
2024-02-02T05:00:36.636Z,26.42
2024-02-02T05:03:05.114Z,14.43
2024-02-02T05:05:33.908Z,31.65
2024-02-02T05:08:01.977Z,20.40
2024-02-02T05:10:29.989Z,20.13
2024-02-02T05:12:57.847Z,23.00
2024-02-02T05:15:27.198Z,32.42
2024-02-02T05:17:55.330Z,18.10
2024-02-02T05:20:23.360Z,23.23
2024-02-02T05:22:51.321Z,18.92
2024-02-02T05:25:19.234Z,29.42
2024-02-02T05:27:47.161Z,29.33
2024-02-02T05:30:15.890Z,24.70
2024-02-02T05:32:45.385Z,22.63
2024-02-02T05:35:13.456Z,26.65
2024-02-02T05:37:41.440Z,22.58
2024-02-02T05:40:10.658Z,27.08
2024-02-02T05:42:38.779Z,27.42
2024-02-02T05:45:07.989Z,23.13
2024-02-02T05:47:35.930Z,25.83
2024-02-02T05:50:05.860Z,20.83
2024-02-02T05:52:33.955Z,22.48
2024-02-02T05:55:01.879Z,22.75
2024-02-02T05:57:29.892Z,20.40
2024-02-02T05:59:57.937Z,27.70
2024-02-02T06:02:26.043Z,14.15
2024-02-02T06:04:54.007Z,18.50
2024-02-02T06:07:23.353Z,23.25
2024-02-02T06:09:51.309Z,23.60
2024-02-02T06:12:19.278Z,18.23
2024-02-02T06:14:47.269Z,21.25
2024-02-02T06:17:15.181Z,25.02
2024-02-02T06:19:43.238Z,24.13
2024-02-02T06:22:11.266Z,23.40
2024-02-02T06:24:40.639Z,23.23
2024-02-02T06:27:08.649Z,17.00
2024-02-02T06:29:36.664Z,23.27
2024-02-02T06:32:04.763Z,21.33
2024-02-02T06:34:32.806Z,30.50
2024-02-02T06:37:00.947Z,24.55
2024-02-02T06:39:28.937Z,24.10
2024-02-02T06:41:58.283Z,25.83
2024-02-02T06:44:26.322Z,31.50
2024-02-02T06:46:54.446Z,23.42
2024-02-02T06:49:22.571Z,21.70
2024-02-02T06:51:50.521Z,18.65
2024-02-02T06:54:18.600Z,21.23
2024-02-02T06:56:47.775Z,25.35
2024-02-02T06:59:17.309Z,27.40
2024-02-02T07:01:45.518Z,25.45
2024-02-02T07:04:15.708Z,22.00
2024-02-02T07:06:44.827Z,26.30
2024-02-02T07:09:27.854Z,24.20
2024-02-02T07:11:58.248Z,29.83
2024-02-02T07:15:00.889Z,23.05
2024-02-02T07:17:41.108Z,28.55
2024-02-02T07:20:12.318Z,24.98
2024-02-02T07:22:41.331Z,24.50
2024-02-02T07:25:10.849Z,28.23
2024-02-02T07:27:55.811Z,22.63
2024-02-02T07:30:52.601Z,30.60
2024-02-02T07:33:24.911Z,26.50
2024-02-02T07:35:53.724Z,21.63
2024-02-02T07:38:43.547Z,25.92
2024-02-02T07:41:14.246Z,27.20
2024-02-02T07:43:42.504Z,28.45
2024-02-02T07:46:14.498Z,27.13
2024-02-02T07:48:44.676Z,23.60
2024-02-02T07:51:13.372Z,19.85
2024-02-02T07:53:41.522Z,20.75
2024-02-02T07:56:10.494Z,23.38
2024-02-02T07:58:38.709Z,25.58
2024-02-02T08:01:08.143Z,24.38
2024-02-02T08:03:38.053Z,28.23
2024-02-02T08:06:07.113Z,26.90
2024-02-02T08:08:37.173Z,27.00
2024-02-02T08:11:05.618Z,19.58
2024-02-02T08:13:34.075Z,24.60
2024-02-02T08:16:02.141Z,27.88
2024-02-02T08:18:30.984Z,23.90
2024-02-02T08:21:02.040Z,23.17
2024-02-02T08:23:30.125Z,26.92
2024-02-02T08:25:58.100Z,21.70
2024-02-02T08:28:26.098Z,18.65
2024-02-02T08:30:57.289Z,25.52
2024-02-02T08:33:25.394Z,31.02
2024-02-02T08:35:53.578Z,19.58
2024-02-02T08:38:22.858Z,18.25
2024-02-02T08:40:50.992Z,22.30
2024-02-02T08:43:22.048Z,15.10
2024-02-02T08:46:10.281Z,23.13
2024-02-02T08:48:40.548Z,26.27
2024-02-02T08:51:54.574Z,22.08
2024-02-02T08:54:36.358Z,25.55
2024-02-02T08:57:37.153Z,22.57
2024-02-02T09:00:27.296Z,21.88
2024-02-02T09:03:10.550Z,17.67
2024-02-02T09:05:56.232Z,25.08
2024-02-02T09:08:35.201Z,15.07
2024-02-02T09:11:21.440Z,16.30
2024-02-02T09:13:49.993Z,20.10
2024-02-02T09:16:20.108Z,17.80
2024-02-02T09:18:56.189Z,15.90
2024-02-02T09:21:29.222Z,16.48
2024-02-02T09:23:57.555Z,19.40
2024-02-02T09:26:39.707Z,18.00
2024-02-02T09:29:10.691Z,19.17
2024-02-02T09:31:39.460Z,18.65
2024-02-02T09:34:10.461Z,15.25
2024-02-02T09:36:40.986Z,17.55
2024-02-02T09:39:30.901Z,25.27
2024-02-02T09:42:30.942Z,13.80
2024-02-02T09:45:01.246Z,20.83
2024-02-02T09:47:53.368Z,20.45
2024-02-02T09:50:38.078Z,20.08
2024-02-02T09:53:25.807Z,13.93
2024-02-02T09:56:00.777Z,17.40
2024-02-02T09:58:38.435Z,20.90
2024-02-02T10:01:16.563Z,13.80
2024-02-02T10:03:55.876Z,16.88
2024-02-02T10:06:35.125Z,13.98
2024-02-02T10:09:13.234Z,18.90
2024-02-02T10:12:04.422Z,21.90
2024-02-02T10:15:04.361Z,14.63
2024-02-02T10:17:45.837Z,11.30
2024-02-02T10:20:23.110Z,17.90
2024-02-02T10:23:27.558Z,12.23
2024-02-02T10:26:34.961Z,13.48
2024-02-02T10:29:14.495Z,15.30
2024-02-02T10:32:09.911Z,15.93
2024-02-02T10:34:54.378Z,20.75
2024-02-02T10:37:34.883Z,18.10
2024-02-02T10:40:29.142Z,9.70
2024-02-02T10:43:17.034Z,18.05
2024-02-02T10:45:57.766Z,15.73
2024-02-02T10:48:55.727Z,14.32
2024-02-02T10:51:32.620Z,12.68
2024-02-02T10:54:12.368Z,17.77
2024-02-02T10:56:55.035Z,16.38
2024-02-02T10:59:34.341Z,14.80
2024-02-02T11:02:14.715Z,11.98
2024-02-02T11:04:58.022Z,20.05
2024-02-02T11:07:29.595Z,16.27
2024-02-02T11:09:59.789Z,12.70
2024-02-02T11:12:40.428Z,16.63
2024-02-02T11:15:27.700Z,18.90
2024-02-02T11:18:07.308Z,13.43
2024-02-02T11:20:49.080Z,17.92
2024-02-02T11:23:23.898Z,15.70
2024-02-02T11:25:57.467Z,12.65
2024-02-02T11:28:30.973Z,15.75
2024-02-02T11:31:09.187Z,13.00
2024-02-02T11:33:54.946Z,14.93
2024-02-02T11:36:38.906Z,21.27
2024-02-02T11:39:24.980Z,16.90
2024-02-02T11:41:54.084Z,14.70
2024-02-02T11:44:22.673Z,13.98
2024-02-02T11:46:53.124Z,13.80
2024-02-02T11:49:25.470Z,12.98
2024-02-02T11:52:02.869Z,13.02
2024-02-02T11:54:37.718Z,17.00
2024-02-02T11:57:08.539Z,16.75
2024-02-02T11:59:40.976Z,15.32
2024-02-02T12:02:22.756Z,20.88
2024-02-02T12:04:58.684Z,12.32
2024-02-02T12:07:36.701Z,13.05
2024-02-02T12:10:06.651Z,16.33
2024-02-02T12:12:37.941Z,14.25
2024-02-02T12:15:10.926Z,15.38
2024-02-02T12:17:39.773Z,14.88
2024-02-02T12:20:09.442Z,10.98
2024-02-02T12:22:40.926Z,12.23
2024-02-02T12:25:11.677Z,18.60
2024-02-02T12:27:39.923Z,13.70
2024-02-02T12:30:10.402Z,14.10
2024-02-02T12:32:39.687Z,12.15
2024-02-02T12:35:08.060Z,23.60
2024-02-02T12:37:48.903Z,9.90
2024-02-02T12:40:20.596Z,18.25
2024-02-02T12:42:49.293Z,11.75
2024-02-02T12:45:17.833Z,11.30
2024-02-02T12:47:46.216Z,16.88
2024-02-02T12:50:16.555Z,13.25
2024-02-02T12:52:45.398Z,15.18
2024-02-02T12:55:15.227Z,14.00
2024-02-02T12:57:43.573Z,15.02
2024-02-02T13:00:15.659Z,16.45
2024-02-02T13:02:45.058Z,11.82
2024-02-02T13:05:13.961Z,17.35
2024-02-02T13:07:43.059Z,13.38
2024-02-02T13:10:12.980Z,14.38
2024-02-02T13:12:48.104Z,13.02
2024-02-02T13:15:19.344Z,10.10
2024-02-02T13:18:01.839Z,13.15
2024-02-02T13:20:33.331Z,12.02
2024-02-02T13:23:11.211Z,16.25
2024-02-02T13:25:41.924Z,13.23
2024-02-02T13:28:17.856Z,15.57
2024-02-02T13:30:54.535Z,18.00
2024-02-02T13:33:24.168Z,13.52
2024-02-02T13:56:52.384Z,9.82
2024-02-02T13:59:20.417Z,14.10
2024-02-02T14:01:48.677Z,8.18
2024-02-02T14:04:25.648Z,11.60
2024-02-02T14:06:53.736Z,9.32
2024-02-02T14:09:23.288Z,15.93
2024-02-02T14:12:00.795Z,12.85
2024-02-02T14:14:29.412Z,9.30
2024-02-02T14:17:04.323Z,14.57
2024-02-02T14:19:32.742Z,40.35
2024-02-02T14:22:07.380Z,14.27
2024-02-02T14:24:36.104Z,15.45
2024-02-02T14:27:08.093Z,9.82
2024-02-02T14:29:43.961Z,12.13
2024-02-02T14:32:12.508Z,8.35
2024-02-02T14:34:40.587Z,8.45
2024-02-02T14:37:11.023Z,17.70
2024-02-02T14:39:39.009Z,9.73
2024-02-02T14:42:08.733Z,8.30
2024-02-02T14:44:37.451Z,12.15
2024-02-02T14:47:07.198Z,8.85
2024-02-02T14:49:35.647Z,12.52
2024-02-02T14:52:03.745Z,13.25
2024-02-02T14:54:32.089Z,8.77
2024-02-02T14:57:00.810Z,8.13
2024-02-02T14:59:33.078Z,11.93
2024-02-02T15:02:01.030Z,14.68
2024-02-02T15:04:28.955Z,20.98
2024-02-02T15:06:57.210Z,11.90
2024-02-02T15:09:27.068Z,12.50
2024-02-02T15:12:01.306Z,14.45
2024-02-02T15:14:35.669Z,12.65
2024-02-02T15:17:04.682Z,14.07
2024-02-02T15:19:32.797Z,10.13
2024-02-02T15:22:01.127Z,14.13
2024-02-02T15:24:29.086Z,9.02
2024-02-02T15:26:57.050Z,11.35
2024-02-02T15:29:25.179Z,12.05
2024-02-02T15:31:54.429Z,11.68
2024-02-02T15:34:24.608Z,11.98
2024-02-02T15:36:52.733Z,10.55
2024-02-02T15:39:27.579Z,12.43
2024-02-02T15:42:02.731Z,12.00
2024-02-02T15:44:30.613Z,9.73
2024-02-02T15:47:00.846Z,10.02
2024-02-02T15:49:28.944Z,9.50
2024-02-02T15:51:57.061Z,15.30
2024-02-02T15:54:25.034Z,11.20
2024-02-02T15:56:52.955Z,8.20
2024-02-02T15:59:20.882Z,16.05
2024-02-02T16:01:48.993Z,21.95
2024-02-02T16:04:18.359Z,13.75
2024-02-02T16:06:46.437Z,13.80
2024-02-02T16:09:14.640Z,7.53
2024-02-02T16:11:42.671Z,13.15
2024-02-02T16:14:10.595Z,8.25
2024-02-02T16:16:38.881Z,10.90
2024-02-02T16:19:06.867Z,14.00
2024-02-02T16:21:36.414Z,10.48
2024-02-02T16:24:04.832Z,10.07
2024-02-02T16:26:32.842Z,10.23
2024-02-02T16:29:00.724Z,18.88
2024-02-02T16:31:28.691Z,12.75
2024-02-02T16:33:56.822Z,11.07
2024-02-02T16:36:24.898Z,13.20
2024-02-02T16:38:54.181Z,7.90
2024-02-02T16:41:22.038Z,9.68
2024-02-02T16:43:49.965Z,13.90
2024-02-02T16:46:17.853Z,13.65
2024-02-02T16:48:46.770Z,14.23
2024-02-02T16:51:18.135Z,7.57
2024-02-02T16:53:46.506Z,13.70
2024-02-02T16:56:19.213Z,11.23
2024-02-02T16:58:47.371Z,10.68
2024-02-02T17:01:15.286Z,11.40
2024-02-02T17:03:44.066Z,10.25
2024-02-02T17:06:12.490Z,10.90
2024-02-02T17:08:40.543Z,7.28
2024-02-02T17:11:09.178Z,11.43
2024-02-02T17:13:38.497Z,12.43
2024-02-02T17:16:07.324Z,16.23
2024-02-02T17:18:35.482Z,13.70
2024-02-02T17:21:03.991Z,15.02
2024-02-02T17:23:32.177Z,13.50
2024-02-02T17:26:00.039Z,11.05
2024-02-02T17:28:27.934Z,14.00
2024-02-02T17:30:57.477Z,12.85
2024-02-02T17:33:25.481Z,10.57
2024-02-02T17:35:53.475Z,15.00
2024-02-02T17:38:21.885Z,16.20
2024-02-02T17:40:50.545Z,13.40
2024-02-02T17:43:18.639Z,8.27
2024-02-02T17:45:46.613Z,19.35
2024-02-02T17:48:16.159Z,19.70
2024-02-02T17:50:45.006Z,18.98
2024-02-02T17:53:12.952Z,13.00
2024-02-02T17:55:40.867Z,13.30
2024-02-02T17:58:09.725Z,12.77
2024-02-02T18:00:37.615Z,23.48
2024-02-02T18:03:05.575Z,21.15
2024-02-02T18:05:34.863Z,17.42
2024-02-02T18:08:02.937Z,19.40
2024-02-02T18:10:30.960Z,18.42
2024-02-02T18:13:00.155Z,21.63
2024-02-02T18:15:28.161Z,20.05
2024-02-02T18:17:56.333Z,21.15
2024-02-02T18:20:24.250Z,26.30
2024-02-02T18:22:54.050Z,21.10
2024-02-02T18:25:24.025Z,19.58
2024-02-02T18:27:53.355Z,21.98
2024-02-02T18:30:26.796Z,18.52
2024-02-02T18:32:54.859Z,15.57
2024-02-02T18:35:23.181Z,17.05
2024-02-02T18:37:54.128Z,17.42
2024-02-02T18:40:26.346Z,17.98
2024-02-02T18:42:54.477Z,18.77
2024-02-02T18:45:22.481Z,17.48
2024-02-02T18:47:50.749Z,14.35
2024-02-02T18:50:19.355Z,19.05
2024-02-02T18:52:48.670Z,19.80
2024-02-02T18:55:16.884Z,15.10
2024-02-02T18:57:46.194Z,15.18
2024-02-02T19:00:15.708Z,19.02
2024-02-02T19:02:43.820Z,13.25
2024-02-02T19:05:12.258Z,15.43
2024-02-02T19:07:40.296Z,15.70
2024-02-02T19:10:08.598Z,17.30
2024-02-02T19:12:36.558Z,15.25
2024-02-02T19:15:07.735Z,13.63
2024-02-02T19:17:35.932Z,15.60
2024-02-02T19:20:04.002Z,15.00
2024-02-02T19:22:31.897Z,18.67
2024-02-02T19:25:00.357Z,13.02
2024-02-02T19:27:28.299Z,12.80
2024-02-02T19:29:56.200Z,15.10
2024-02-02T19:32:27.818Z,13.73
2024-02-02T19:34:55.750Z,13.77
2024-02-02T19:37:24.007Z,12.38
2024-02-02T19:39:52.050Z,14.43
2024-02-02T19:42:19.989Z,14.20
2024-02-02T19:44:47.900Z,16.42
2024-02-02T19:47:15.780Z,14.90
2024-02-02T19:49:45.118Z,13.25
2024-02-02T19:52:13.070Z,14.25
2024-02-02T19:54:42.865Z,13.07
2024-02-02T19:57:10.841Z,12.82
2024-02-02T19:59:38.718Z,10.93
2024-02-02T20:02:07.889Z,11.18
2024-02-02T20:04:35.862Z,12.68
2024-02-02T20:07:05.353Z,15.70
2024-02-02T20:09:33.267Z,12.68
2024-02-02T20:12:02.000Z,12.40
2024-02-02T20:14:30.196Z,16.73
2024-02-02T20:16:58.096Z,14.90
2024-02-02T20:19:26.343Z,12.93
2024-02-02T20:21:54.407Z,13.93
2024-02-02T20:24:23.854Z,12.02
2024-02-02T20:26:51.828Z,15.05
2024-02-02T20:29:19.781Z,15.77
2024-02-02T20:31:51.427Z,13.50
2024-02-02T20:34:19.673Z,14.23
2024-02-02T20:36:47.808Z,13.32
2024-02-02T20:39:15.773Z,14.15
2024-02-02T20:41:45.205Z,13.27
2024-02-02T20:44:13.193Z,15.85
2024-02-02T20:46:41.095Z,17.20
2024-02-02T20:49:09.123Z,11.95
2024-02-02T20:51:41.793Z,15.35
2024-02-02T20:56:42.747Z,13.82
2024-02-02T20:59:12.027Z,15.43
2024-02-02T21:01:40.072Z,16.63
2024-02-02T21:04:08.226Z,17.85
2024-02-02T21:06:42.948Z,14.07
2024-02-02T21:09:11.316Z,16.88
2024-02-02T21:11:39.265Z,16.10
2024-02-02T21:14:07.178Z,16.33
2024-02-02T21:16:36.507Z,14.80
2024-02-02T21:19:05.846Z,14.15
2024-02-02T21:21:33.958Z,17.23
2024-02-02T21:24:01.900Z,16.55
2024-02-02T21:26:30.592Z,18.65
2024-02-02T21:28:58.695Z,14.95
2024-02-02T21:31:26.666Z,15.80
2024-02-02T21:33:56.620Z,17.02
2024-02-02T21:36:24.647Z,17.77
2024-02-02T21:38:52.530Z,15.25
2024-02-02T21:41:25.540Z,17.35
2024-02-02T21:43:54.217Z,16.58
2024-02-02T21:46:22.956Z,15.93
2024-02-02T21:48:51.190Z,16.92
2024-02-02T21:51:20.575Z,18.42
2024-02-02T21:53:48.478Z,15.10
2024-02-02T21:56:16.488Z,18.95
2024-02-02T21:58:44.356Z,15.38
2024-02-02T22:01:12.428Z,20.20
2024-02-02T22:03:40.415Z,19.17
2024-02-02T22:06:09.246Z,15.07
2024-02-02T22:08:38.582Z,14.45
2024-02-02T22:11:06.677Z,15.57
2024-02-02T22:13:36.835Z,16.02
2024-02-02T22:16:11.005Z,21.05
2024-02-02T22:18:39.082Z,18.48
2024-02-02T22:21:07.251Z,17.13
2024-02-02T22:23:36.068Z,16.63
2024-02-02T22:26:05.888Z,15.43
2024-02-02T22:28:33.922Z,15.10
2024-02-02T22:31:05.969Z,16.15
2024-02-02T22:33:34.349Z,17.73
2024-02-02T22:36:02.383Z,13.65
2024-02-02T22:38:30.488Z,13.55
2024-02-02T22:40:59.124Z,17.17
2024-02-02T22:43:29.612Z,13.25
2024-02-02T22:45:57.544Z,13.32
2024-02-02T22:48:25.619Z,13.48
2024-02-02T22:50:56.010Z,14.07
2024-02-02T22:53:23.972Z,14.15
2024-02-02T22:55:51.953Z,12.77
2024-02-02T22:58:19.852Z,14.30
2024-02-02T23:00:49.583Z,13.27
2024-02-02T23:06:36.267Z,11.50
2024-02-02T23:09:04.431Z,12.40
2024-02-02T23:11:32.491Z,12.75
2024-02-02T23:14:00.379Z,11.00
2024-02-02T23:16:28.372Z,12.57
2024-02-02T23:18:56.748Z,14.50
2024-02-02T23:21:24.791Z,11.93
2024-02-02T23:23:54.103Z,10.85
2024-02-02T23:26:22.021Z,10.60
2024-02-02T23:28:49.907Z,10.75
2024-02-02T23:31:18.107Z,11.63
2024-02-02T23:33:46.061Z,14.52
2024-02-02T23:36:14.197Z,11.45
2024-02-02T23:38:44.512Z,12.63
2024-02-02T23:41:16.772Z,11.13
2024-02-02T23:43:44.820Z,12.82
2024-02-02T23:46:12.769Z,11.25
2024-02-02T23:48:40.787Z,13.25
2024-02-02T23:51:08.823Z,13.93
2024-02-02T23:53:36.776Z,11.07
2024-02-02T23:56:05.042Z,11.90
2024-02-02T23:58:34.326Z,12.20
